地図

経路データ

SID SEASON NUMBER BASIN SUBBASIN NAME ISO_TIME NATURE LAT LON WMO_WIND WMO_PRES WMO_AGENCY TRACK_TYPE DIST2LAND LANDFALL IFLAG USA_AGENCY USA_ATCF_ID USA_LAT USA_LON USA_RECORD USA_STATUS USA_WIND USA_PRES USA_SSHS USA_R34_NE USA_R34_SE USA_R34_SW USA_R34_NW USA_R50_NE USA_R50_SE USA_R50_SW USA_R50_NW USA_R64_NE USA_R64_SE USA_R64_SW USA_R64_NW USA_POCI USA_ROCI USA_RMW USA_EYE TOKYO_LAT TOKYO_LON TOKYO_GRADE TOKYO_WIND TOKYO_PRES TOKYO_R50_DIR TOKYO_R50_LONG TOKYO_R50_SHORT TOKYO_R30_DIR TOKYO_R30_LONG TOKYO_R30_SHORT TOKYO_LAND CMA_LAT CMA_LON CMA_CAT CMA_WIND CMA_PRES HKO_LAT HKO_LON HKO_CAT HKO_WIND HKO_PRES NEWDELHI_LAT NEWDELHI_LON NEWDELHI_GRADE NEWDELHI_WIND NEWDELHI_PRES NEWDELHI_CI NEWDELHI_DP NEWDELHI_POCI REUNION_LAT REUNION_LON REUNION_TYPE REUNION_WIND REUNION_PRES REUNION_TNUM REUNION_CI REUNION_RMW REUNION_R34_NE REUNION_R34_SE REUNION_R34_SW REUNION_R34_NW REUNION_R50_NE REUNION_R50_SE REUNION_R50_SW REUNION_R50_NW REUNION_R64_NE REUNION_R64_SE REUNION_R64_SW REUNION_R64_NW BOM_LAT BOM_LON BOM_TYPE BOM_WIND BOM_PRES BOM_TNUM BOM_CI BOM_RMW BOM_R34_NE BOM_R34_SE BOM_R34_SW BOM_R34_NW BOM_R50_NE BOM_R50_SE BOM_R50_SW BOM_R50_NW BOM_R64_NE BOM_R64_SE BOM_R64_SW BOM_R64_NW BOM_ROCI BOM_POCI BOM_EYE BOM_POS_METHOD BOM_PRES_METHOD NADI_LAT NADI_LON NADI_CAT NADI_WIND NADI_PRES WELLINGTON_LAT WELLINGTON_LON WELLINGTON_WIND WELLINGTON_PRES DS824_LAT DS824_LON DS824_STAGE DS824_WIND DS824_PRES TD9636_LAT TD9636_LON TD9636_STAGE TD9636_WIND TD9636_PRES TD9635_LAT TD9635_LON TD9635_WIND TD9635_PRES TD9635_ROCI NEUMANN_LAT NEUMANN_LON NEUMANN_CLASS NEUMANN_WIND NEUMANN_PRES MLC_LAT MLC_LON MLC_CLASS MLC_WIND MLC_PRES USA_GUST BOM_GUST BOM_GUST_PER REUNION_GUST REUNION_GUST_PER USA_SEAHGT USA_SEARAD_NE USA_SEARAD_SE USA_SEARAD_SW USA_SEARAD_NW STORM_SPEED STORM_DIR
1894205N19114 1894 30 WP MM NOT_NAMED 1894-07-24 04:00:00 NR 18.7000 113.600 main 291 267 __________O___ -1 18.7000 113.600 7 5 302
1894205N19114 1894 30 WP MM NOT_NAMED 1894-07-24 06:00:00 NR 18.7911 113.442 main 267 243 __________P___ -1 18.7911 113.442 7 5 301
1894205N19114 1894 30 WP MM NOT_NAMED 1894-07-24 09:00:00 NR 18.9248 113.207 main 243 217 __________P___ -1 18.9248 113.207 7 5 301
1894205N19114 1894 30 WP MM NOT_NAMED 1894-07-24 12:00:00 NR 19.0509 112.981 main 217 194 __________P___ -1 19.0509 112.981 7 5 300
1894205N19114 1894 30 WP MM NOT_NAMED 1894-07-24 15:00:00 NR 19.1653 112.767 main 194 183 __________P___ -1 19.1653 112.767 7 5 299
1894205N19114 1894 30 WP MM NOT_NAMED 1894-07-24 16:00:00 NR 19.2000 112.700 main 183 171 __________O___ -1 19.2000 112.700 7 4 298
1894205N19114 1894 30 WP MM NOT_NAMED 1894-07-24 18:00:00 NR 19.2643 112.571 main 171 148 __________P___ -1 19.2643 112.571 7 4 297
1894205N19114 1894 30 WP MM NOT_NAMED 1894-07-24 21:00:00 NR 19.3544 112.385 main 148 127 __________P___ -1 19.3544 112.385 7 4 297
1894205N19114 1894 30 WP MM NOT_NAMED 1894-07-25 00:00:00 NR 19.4481 112.192 main 127 104 __________P___ -1 19.4481 112.192 7 4 298
1894205N19114 1894 30 WP MM NOT_NAMED 1894-07-25 03:00:00 NR 19.5577 111.979 main 104 94 __________P___ -1 19.5577 111.979 7 5 299
1894205N19114 1894 30 WP MM NOT_NAMED 1894-07-25 04:00:00 NR 19.6000 111.900 main 94 74 __________O___ -1 19.6000 111.900 3 6 299
1894205N19114 1894 30 WP MM NOT_NAMED 1894-07-25 06:00:00 NR 19.6917 111.720 main 74 47 __________P___ -1 19.6917 111.720 3 6 299
1894205N19114 1894 30 WP MM NOT_NAMED 1894-07-25 09:00:00 NR 19.8481 111.425 main 47 23 __________P___ -1 19.8481 111.425 3 7 300
1894205N19114 1894 30 WP MM NOT_NAMED 1894-07-25 12:00:00 NR 20.0268 111.114 main 23 15 __________P___ -1 20.0268 111.114 3 7 303
1894205N19114 1894 30 WP MM NOT_NAMED 1894-07-25 15:00:00 NR 20.2279 110.802 main 15 15 __________P___ -1 20.2279 110.802 3 7 305
1894205N19114 1894 30 WP MM NOT_NAMED 1894-07-25 16:00:00 NR 20.3000 110.700 main 22 0 __________O___ -1 20.3000 110.700 4 7 309
1894205N19114 1894 30 WP MM NOT_NAMED 1894-07-25 18:00:00 NR 20.4514 110.503 main 0 0 __________P___ -1 20.4514 110.503 4 7 311
1894205N19114 1894 30 WP MM NOT_NAMED 1894-07-25 21:00:00 NR 20.6937 110.222 main 0 0 __________P___ -1 20.6937 110.222 4 7 314
1894205N19114 1894 30 WP MM NOT_NAMED 1894-07-26 00:00:00 NR 20.9491 109.952 main 0 0 __________P___ -1 20.9491 109.952 4 7 316
1894205N19114 1894 30 WP MM NOT_NAMED 1894-07-26 03:00:00 NR 21.2118 109.688 main 10 10 __________P___ -1 21.2118 109.688 4 7 317
1894205N19114 1894 30 WP MM NOT_NAMED 1894-07-26 04:00:00 NR 21.3000 109.600 main 20 __________O___ -1 21.3000 109.600 4 7 318

デジタル台風データ・検索

IBTrACS Databaseについて

本データベースは、米国NOAAが公開する1842年以降の世界の熱帯低気圧のベストトラックデータアーカイブInternational Best Track Archive for Climate Stewardship (IBTrACS)を、ウェブで閲覧しやすい形式に変換したものです。

最終更新日:2021-10-21